Terminal Aerodrome Forecast
Issued by NWS Cleveland, OH

Home | Current Version | Previous Version | Text Only | Print | Product List | Glossary Off
Versions: 1 2 3 4 5 6 7 8 9 10 11 12 13 14 15 16 17 18 19 20 21 22 23 24 25

000
FTUS41 KCLE 222300
TAFCLE
TAF
KCLE 222337Z 2300/2406 11010KT P6SM BKN120
     FM230800 13010KT 5SM -SHRA BR SCT015 OVC025
     FM231200 15012KT 2SM -SHRA BR BKN008 OVC012
     FM231800 17014G22KT 5SM BR SCT008 OVC012=

USA.gov is the U.S. government's official web portal to all federal, state and local government web resources and services.